createdAt,value
2023-05-05T00:00:15.615Z,98861.09
2023-05-05T00:02:43.734Z,98838.22
2023-05-05T00:05:11.613Z,98825.63
2023-05-05T00:07:40.785Z,98805.25
2023-05-05T00:10:09.208Z,98788.31
2023-05-05T00:12:37.800Z,98771.44
2023-05-05T00:15:06.635Z,98754.50
2023-05-05T00:17:34.658Z,98731.66
2023-05-05T00:20:02.509Z,98720.69
2023-05-05T00:22:30.399Z,98704.66
2023-05-05T00:24:59.541Z,98689.41
2023-05-05T00:27:27.337Z,98675.03
2023-05-05T00:29:55.161Z,98660.69
2023-05-05T00:32:22.962Z,98638.69
2023-05-05T00:34:50.802Z,98621.75
2023-05-05T00:37:18.621Z,98603.16
2023-05-05T00:39:46.431Z,98596.44
2023-05-05T00:42:15.749Z,98587.97
2023-05-05T00:44:44.806Z,98577.91
2023-05-05T00:47:13.906Z,98567.78
2023-05-05T00:49:41.803Z,98558.50
2023-05-05T00:52:10.621Z,98547.53
2023-05-05T00:54:39.844Z,98530.53
2023-05-05T00:57:07.829Z,98517.91
2023-05-05T00:59:37.880Z,98487.41
2023-05-05T01:02:05.989Z,98469.66
2023-05-05T01:04:33.832Z,98459.63
2023-05-05T01:07:14.764Z,98446.13
2023-05-05T01:10:07.287Z,98430.94
2023-05-05T01:12:47.553Z,98415.69
2023-05-05T01:15:26.421Z,98408.06
2023-05-05T01:18:01.752Z,98410.63
2023-05-05T01:20:37.216Z,98405.66
2023-05-05T01:23:08.437Z,98387.03
2023-05-05T01:26:10.721Z,98374.59
2023-05-05T01:29:02.365Z,98343.19
2023-05-05T01:31:51.772Z,98334.78
2023-05-05T01:34:24.330Z,98315.34
2023-05-05T01:36:59.344Z,98303.56
2023-05-05T01:39:32.440Z,98291.00
2023-05-05T01:42:06.737Z,98269.03
2023-05-05T01:44:37.470Z,98253.88
2023-05-05T01:47:07.710Z,98237.81
2023-05-05T01:49:38.244Z,98225.97
2023-05-05T01:52:07.836Z,98217.53
2023-05-05T01:54:36.079Z,98216.78
2023-05-05T01:57:05.850Z,98206.69
2023-05-05T01:59:34.931Z,98200.81
2023-05-05T02:02:04.316Z,98183.09
2023-05-05T02:04:35.285Z,98168.69
2023-05-05T02:07:04.401Z,98157.78
2023-05-05T02:09:33.938Z,98152.72
2023-05-05T02:12:03.096Z,98143.44
2023-05-05T02:14:32.153Z,98133.38
2023-05-05T02:17:01.397Z,98124.06
2023-05-05T02:19:31.358Z,98110.59
2023-05-05T02:22:01.139Z,98094.63
2023-05-05T02:24:30.104Z,98082.81
2023-05-05T02:27:03.728Z,98074.44
2023-05-05T02:29:35.519Z,98059.31
2023-05-05T02:32:06.860Z,98050.88
2023-05-05T02:34:37.749Z,98038.22
2023-05-05T02:37:13.114Z,98032.34
2023-05-05T02:39:51.564Z,98025.63
2023-05-05T02:42:23.337Z,98015.47
2023-05-05T02:44:56.401Z,98005.41
2023-05-05T02:47:29.047Z,97994.47
2023-05-05T02:49:57.376Z,97995.38
2023-05-05T02:52:26.801Z,97989.44
2023-05-05T02:54:54.820Z,97988.69
2023-05-05T02:57:27.604Z,97984.50
2023-05-05T03:00:06.963Z,97980.28
2023-05-05T03:02:52.969Z,97974.28
2023-05-05T03:05:23.337Z,97968.53
2023-05-05T03:07:58.194Z,97959.28
2023-05-05T03:10:32.021Z,97950.91
2023-05-05T03:13:03.898Z,97942.50
2023-05-05T03:15:43.579Z,97941.66
2023-05-05T03:18:13.240Z,97935.81
2023-05-05T03:20:44.877Z,97926.53
2023-05-05T03:23:18.350Z,97919.75
2023-05-05T03:25:48.116Z,97916.47
2023-05-05T03:28:38.624Z,97903.75
2023-05-05T03:31:18.138Z,97902.06
2023-05-05T03:33:50.619Z,97900.50
2023-05-05T03:36:21.073Z,97894.56
2023-05-05T03:38:50.536Z,97886.22
2023-05-05T03:41:20.889Z,97870.91
2023-05-05T03:43:48.721Z,97868.44
2023-05-05T03:46:17.391Z,97858.38
2023-05-05T03:48:45.444Z,97839.88
2023-05-05T03:51:13.807Z,97834.09
2023-05-05T03:53:42.189Z,97840.03
2023-05-05T03:56:12.561Z,97839.13
2023-05-05T03:58:40.548Z,97839.13
2023-05-05T04:01:08.514Z,97843.34
2023-05-05T04:03:36.633Z,97839.97
2023-05-05T04:06:04.774Z,97852.66
2023-05-05T04:08:33.709Z,97857.69
2023-05-05T04:11:03.163Z,97877.94
2023-05-05T04:13:34.236Z,97889.75
2023-05-05T04:16:03.720Z,97889.66
2023-05-05T04:18:32.273Z,97900.72
2023-05-05T04:21:00.800Z,97912.56
2023-05-05T04:23:28.684Z,97913.38
2023-05-05T04:25:56.996Z,97908.34
2023-05-05T04:28:26.499Z,97907.53
2023-05-05T04:30:55.808Z,97899.16
2023-05-05T04:33:23.922Z,97894.06
2023-05-05T04:35:51.809Z,97896.63
2023-05-05T04:38:21.079Z,97895.78
2023-05-05T04:40:50.118Z,97894.13
2023-05-05T04:43:18.410Z,97906.03
2023-05-05T04:45:53.536Z,97899.25
2023-05-05T04:48:24.788Z,97892.50
2023-05-05T04:50:53.182Z,97889.09
2023-05-05T04:53:21.156Z,97890.00
2023-05-05T04:55:50.825Z,97897.59
2023-05-05T04:58:19.109Z,97896.69
2023-05-05T05:00:47.248Z,97914.44
2023-05-05T05:03:15.043Z,97923.78
2023-05-05T05:05:44.357Z,97939.81
2023-05-05T05:08:12.181Z,97953.28
2023-05-05T05:10:41.472Z,97965.13
2023-05-05T05:13:11.256Z,97979.41
2023-05-05T05:15:40.753Z,97995.47
2023-05-05T05:18:08.770Z,98016.59
2023-05-05T05:20:36.625Z,98024.97
2023-05-05T05:23:05.925Z,98054.50
2023-05-05T05:25:37.806Z,98080.53
2023-05-05T05:28:09.459Z,98103.34
2023-05-05T05:30:42.611Z,98123.53
2023-05-05T05:33:12.040Z,98154.72
2023-05-05T05:35:40.815Z,98186.84
2023-05-05T05:38:10.705Z,98213.00
2023-05-05T05:40:38.585Z,98239.16
2023-05-05T05:43:06.940Z,98277.22
2023-05-05T05:45:36.472Z,98303.31
2023-05-05T05:48:06.479Z,98333.69
2023-05-05T05:53:04.018Z,98407.28
2023-05-05T05:55:33.590Z,98444.41
2023-05-05T05:58:02.399Z,98479.03
2023-05-05T06:00:30.991Z,98511.13
2023-05-05T06:03:05.415Z,98550.03
2023-05-05T06:05:36.837Z,98594.88
2023-05-05T06:08:05.026Z,98638.94
2023-05-05T06:10:38.160Z,98688.72
2023-05-05T06:13:10.495Z,98749.72
2023-05-05T06:15:42.477Z,98818.31
2023-05-05T06:18:12.475Z,98887.75
2023-05-05T06:20:40.346Z,98952.09
2023-05-05T06:23:08.671Z,99024.25
2023-05-05T06:25:41.987Z,99101.41
2023-05-05T06:28:09.879Z,99166.78
2023-05-05T06:30:37.810Z,99222.69
2023-05-05T06:33:05.735Z,99289.78
2023-05-05T06:35:33.562Z,99365.41
2023-05-05T06:38:01.390Z,99428.94
2023-05-05T06:40:29.269Z,99516.59
2023-05-05T06:42:58.423Z,99601.63
2023-05-05T06:45:31.165Z,99670.63
2023-05-05T06:47:59.063Z,99716.56
2023-05-05T06:50:27.042Z,99768.41
2023-05-05T06:52:54.826Z,99821.22
2023-05-05T06:55:23.407Z,99866.38
2023-05-05T06:57:51.339Z,99907.28
2023-05-05T07:00:22.141Z,99949.94
2023-05-05T07:02:49.999Z,99989.16
2023-05-05T07:05:17.876Z,100033.50
2023-05-05T07:07:52.633Z,100080.47
2023-05-05T07:10:20.578Z,100125.69
2023-05-05T07:12:48.490Z,100190.47
2023-05-05T07:15:26.801Z,100276.69
2023-05-05T07:17:58.055Z,100351.81
2023-05-05T07:20:26.780Z,100403.13
2023-05-05T07:22:54.769Z,100444.13
2023-05-05T07:25:22.822Z,100478.34
2023-05-05T07:27:51.118Z,100514.19
2023-05-05T07:30:19.666Z,100570.66
2023-05-05T07:32:47.952Z,100626.31
2023-05-05T07:35:17.378Z,100684.50
2023-05-05T07:37:45.580Z,100733.22
2023-05-05T07:40:14.084Z,100794.91
2023-05-05T07:42:42.092Z,100863.41
2023-05-05T07:45:10.454Z,100908.78
2023-05-05T07:47:38.380Z,100976.56
2023-05-05T07:50:07.957Z,101023.63
2023-05-05T07:52:45.353Z,101099.19
2023-05-05T07:55:17.791Z,101156.66
2023-05-05T07:57:45.746Z,101216.78
2023-05-05T08:00:14.844Z,101257.06
2023-05-05T08:02:44.023Z,101314.63
2023-05-05T08:05:12.851Z,101372.16
2023-05-05T08:07:42.076Z,101446.16
2023-05-05T08:10:11.896Z,101513.13
2023-05-05T08:12:40.027Z,101597.44
2023-05-05T08:15:09.096Z,101667.94
2023-05-05T08:17:47.990Z,101776.41
2023-05-05T08:20:16.028Z,101855.69
2023-05-05T08:22:45.322Z,101902.19
2023-05-05T08:25:13.857Z,101968.56
2023-05-05T08:27:42.679Z,102021.97
2023-05-05T08:30:11.843Z,102061.66
2023-05-05T08:32:39.753Z,102120.31
2023-05-05T08:35:08.526Z,102197.97
2023-05-05T08:37:36.651Z,102278.25
2023-05-05T08:40:06.673Z,102350.84
2023-05-05T08:42:38.806Z,102425.97
2023-05-05T08:45:09.020Z,102508.94
2023-05-05T08:47:38.756Z,102548.72
2023-05-05T08:50:11.001Z,102563.44
2023-05-05T08:52:41.368Z,102559.94
2023-05-05T08:55:25.621Z,102537.44
2023-05-05T08:57:56.495Z,102513.16
2023-05-05T09:00:26.465Z,102495.88
2023-05-05T09:02:57.076Z,102469.94
2023-05-05T09:05:24.955Z,102469.09
2023-05-05T09:07:53.180Z,102476.88
2023-05-05T09:10:22.475Z,102479.50
2023-05-05T09:12:51.627Z,102479.38
2023-05-05T09:15:19.612Z,102486.34
2023-05-05T09:17:48.215Z,102495.00
2023-05-05T09:20:16.370Z,102504.44
2023-05-05T09:22:45.557Z,102513.13
2023-05-05T09:25:14.980Z,102516.56
2023-05-05T09:27:46.791Z,102512.28
2023-05-05T09:30:16.547Z,102513.94
2023-05-05T09:32:46.218Z,102518.25
2023-05-05T09:35:14.198Z,102515.66
2023-05-05T09:37:42.322Z,102499.22
2023-05-05T09:40:11.265Z,102475.81
2023-05-05T09:42:40.222Z,102411.84
2023-05-05T09:45:27.442Z,102366.91
2023-05-05T09:47:59.570Z,102360.84
2023-05-05T09:50:30.683Z,102366.00
2023-05-05T09:53:00.853Z,102377.25
2023-05-05T09:55:29.021Z,102388.41
2023-05-05T09:57:56.860Z,102397.94
2023-05-05T10:00:39.151Z,102404.81
2023-05-05T10:03:07.229Z,102402.25
2023-05-05T10:05:48.571Z,102387.56
2023-05-05T10:08:17.625Z,102360.78
2023-05-05T10:10:51.529Z,102342.59
2023-05-05T10:13:20.907Z,102333.91
2023-05-05T10:15:52.077Z,102322.72
2023-05-05T10:18:25.043Z,102324.47
2023-05-05T10:20:59.268Z,102324.47
2023-05-05T10:23:34.225Z,102320.97
2023-05-05T10:26:04.304Z,102315.75
2023-05-05T10:28:34.772Z,102307.13
2023-05-05T10:31:16.502Z,102283.88
2023-05-05T10:33:55.499Z,102261.38
2023-05-05T10:36:24.450Z,102250.13
2023-05-05T10:38:56.223Z,102235.47
2023-05-05T10:41:25.309Z,102219.91
2023-05-05T10:43:56.226Z,102225.94
2023-05-05T10:46:26.768Z,102263.91
2023-05-05T10:49:00.931Z,102314.00
2023-05-05T10:51:41.486Z,102356.28
2023-05-05T10:54:17.836Z,102395.19
2023-05-05T10:56:48.194Z,102444.44
2023-05-05T10:59:41.871Z,102510.09
2023-05-05T11:02:24.650Z,102619.16
2023-05-05T11:05:09.348Z,102718.72
2023-05-05T11:07:37.524Z,102767.16
2023-05-05T11:10:06.984Z,102786.16
2023-05-05T11:13:13.504Z,102824.25
2023-05-05T11:15:41.579Z,102870.22
2023-05-05T11:18:30.560Z,102925.69
2023-05-05T11:21:18.210Z,102952.50
2023-05-05T11:23:47.823Z,102979.38
2023-05-05T11:26:17.326Z,103001.91
2023-05-05T11:29:00.322Z,103040.00
2023-05-05T11:31:28.870Z,103099.03
2023-05-05T11:34:31.055Z,103154.53
2023-05-05T11:37:03.056Z,103209.16
2023-05-05T11:39:41.742Z,103265.66
2023-05-05T11:42:25.766Z,103276.91
2023-05-05T11:44:54.740Z,103319.44
2023-05-05T11:47:34.551Z,103355.94
2023-05-05T11:50:21.699Z,103381.94
2023-05-05T11:52:50.037Z,103401.94
2023-05-05T11:55:22.954Z,103382.78
2023-05-05T11:57:51.092Z,103383.69
2023-05-05T12:00:19.900Z,103387.16
2023-05-05T12:02:48.163Z,103390.63
2023-05-05T12:05:22.085Z,103420.09
2023-05-05T12:07:56.824Z,103453.16
2023-05-05T12:10:24.932Z,103482.66
2023-05-05T12:12:55.496Z,103492.19
2023-05-05T12:15:31.523Z,103499.16
2023-05-05T12:18:01.607Z,103539.16
2023-05-05T12:20:33.759Z,103573.97
2023-05-05T12:23:05.006Z,103619.19
2023-05-05T12:25:38.111Z,103686.19
2023-05-05T12:28:07.488Z,103747.06
2023-05-05T12:30:35.786Z,103827.16
2023-05-05T12:33:04.561Z,103855.88
2023-05-05T12:35:34.465Z,103869.81
2023-05-05T12:38:02.337Z,103896.84
2023-05-05T12:40:47.213Z,103965.66
2023-05-05T12:43:26.603Z,104010.06
2023-05-05T12:46:05.619Z,104022.31
2023-05-05T12:48:33.803Z,104002.19
2023-05-05T12:51:20.354Z,103948.22
2023-05-05T12:53:49.437Z,103873.19
2023-05-05T12:56:48.201Z,103780.00
2023-05-05T12:59:30.711Z,103734.72
2023-05-05T13:01:59.947Z,103704.25
2023-05-05T13:04:29.310Z,103672.03
2023-05-05T13:07:12.750Z,103628.50
2023-05-05T13:09:40.698Z,103599.78
2023-05-05T13:12:11.871Z,103564.09
2023-05-05T13:14:40.653Z,103503.19
2023-05-05T13:17:08.858Z,103478.84
2023-05-05T13:19:41.870Z,103460.56
2023-05-05T13:22:11.176Z,103429.28
2023-05-05T13:24:50.591Z,103389.28
2023-05-05T13:27:19.199Z,103358.84
2023-05-05T13:29:47.064Z,103314.56
2023-05-05T13:32:14.860Z,103276.34
2023-05-05T13:34:44.074Z,103242.44
2023-05-05T13:37:13.286Z,103220.72
2023-05-05T13:39:41.104Z,103183.44
2023-05-05T13:42:09.094Z,103149.53
2023-05-05T13:44:36.926Z,103119.13
2023-05-05T13:47:04.921Z,103089.56
2023-05-05T13:49:32.749Z,103047.03
2023-05-05T13:52:00.575Z,103001.13
2023-05-05T13:54:29.734Z,102946.47
2023-05-05T13:56:57.850Z,102890.13
2023-05-05T13:59:26.308Z,102819.91
2023-05-05T14:01:54.149Z,102768.84
2023-05-05T14:04:21.962Z,102697.78
2023-05-05T14:06:49.856Z,102614.75
2023-05-05T14:09:17.695Z,102511.75
2023-05-05T14:11:46.819Z,102402.00
2023-05-05T14:14:14.620Z,102295.63
2023-05-05T14:16:42.432Z,102173.94
2023-05-05T14:19:10.343Z,102085.00
2023-05-05T14:21:38.154Z,102033.25
2023-05-05T14:24:06.505Z,101991.03
2023-05-05T14:26:34.376Z,101938.41
2023-05-05T14:29:03.943Z,101909.13
2023-05-05T14:31:31.795Z,101850.41
2023-05-05T14:33:59.645Z,101839.28
2023-05-05T14:36:27.443Z,101838.47
2023-05-05T14:38:55.442Z,101835.88
2023-05-05T14:41:23.581Z,101852.28
2023-05-05T14:43:51.396Z,101875.56
2023-05-05T14:46:20.646Z,101926.47
2023-05-05T14:48:48.543Z,101975.56
2023-05-05T14:51:16.799Z,102030.72
2023-05-05T14:53:44.661Z,102080.00
2023-05-05T14:56:12.605Z,102117.97
2023-05-05T14:58:40.582Z,102172.34
2023-05-05T15:01:08.404Z,102218.16
2023-05-05T15:03:37.795Z,102255.28
2023-05-05T15:06:05.877Z,102311.44
2023-05-05T15:08:33.746Z,102320.09
2023-05-05T15:11:01.689Z,102358.19
2023-05-05T15:13:29.744Z,102366.00
2023-05-05T15:15:57.662Z,102355.69
2023-05-05T15:18:25.675Z,102357.34
2023-05-05T15:20:54.792Z,102367.78
2023-05-05T15:23:22.681Z,102345.28
2023-05-05T15:25:50.527Z,102327.09
2023-05-05T15:28:18.681Z,102296.06
2023-05-05T15:30:46.521Z,102241.63
2023-05-05T15:33:14.375Z,102186.41
2023-05-05T15:35:42.185Z,102141.53
2023-05-05T15:38:11.438Z,102125.13
2023-05-05T15:40:39.231Z,102104.41
2023-05-05T15:43:07.061Z,102090.69
2023-05-05T15:45:35.115Z,102057.03
2023-05-05T15:48:02.985Z,102029.44
2023-05-05T15:50:30.973Z,101982.84
2023-05-05T15:52:59.033Z,101974.31
2023-05-05T15:55:28.968Z,101958.78
2023-05-05T15:57:56.766Z,101953.63
2023-05-05T16:00:25.744Z,101941.47
2023-05-05T16:02:53.759Z,101930.31
2023-05-05T16:05:23.090Z,101907.00
2023-05-05T16:07:52.442Z,101893.28
2023-05-05T16:10:20.548Z,101844.97
2023-05-05T16:12:50.009Z,101822.69
2023-05-05T16:15:17.872Z,101791.56
2023-05-05T16:17:45.813Z,101791.69
2023-05-05T16:20:14.062Z,101751.13
2023-05-05T16:22:41.859Z,101751.25
2023-05-05T16:25:12.357Z,101735.69
2023-05-05T16:27:40.158Z,101706.47
2023-05-05T16:30:12.738Z,101681.53
2023-05-05T16:32:40.593Z,101652.31
2023-05-05T16:35:09.232Z,101617.03
2023-05-05T16:37:37.296Z,101577.47
2023-05-05T16:40:06.699Z,101553.41
2023-05-05T16:42:34.537Z,101541.41
2023-05-05T16:45:02.347Z,101517.25
2023-05-05T16:47:34.745Z,101497.53
2023-05-05T16:50:02.395Z,101476.03
2023-05-05T16:52:30.189Z,101457.09
2023-05-05T16:54:57.987Z,101430.47
2023-05-05T16:57:25.855Z,101412.50
2023-05-05T16:59:56.288Z,101391.06
2023-05-05T17:02:24.182Z,101364.44
2023-05-05T17:04:53.435Z,101334.34
2023-05-05T17:07:21.356Z,101300.84
2023-05-05T17:09:49.232Z,101278.50
2023-05-05T17:12:17.042Z,101236.41
2023-05-05T17:14:45.340Z,101215.06
2023-05-05T17:17:13.226Z,101208.22
2023-05-05T17:19:42.529Z,101198.78
2023-05-05T17:22:11.680Z,101198.84
2023-05-05T17:24:39.501Z,101193.66
2023-05-05T17:27:07.364Z,101196.25
2023-05-05T17:29:40.695Z,101191.06
2023-05-05T17:32:08.769Z,101191.13
2023-05-05T17:34:36.718Z,101164.53
2023-05-05T17:37:04.728Z,101142.25
2023-05-05T17:39:33.862Z,101123.31
2023-05-05T17:42:01.708Z,101110.50
2023-05-05T17:44:31.391Z,101099.41
2023-05-05T17:46:59.288Z,101085.69
2023-05-05T17:49:27.075Z,101071.97
2023-05-05T17:51:54.890Z,101058.25
2023-05-05T17:54:22.718Z,101052.28
2023-05-05T17:56:51.906Z,101056.56
2023-05-05T17:59:19.690Z,101069.47
2023-05-05T18:01:47.573Z,101074.66
2023-05-05T18:04:15.880Z,101083.25
2023-05-05T18:06:43.674Z,101091.84
2023-05-05T18:09:12.029Z,101095.34
2023-05-05T18:11:39.851Z,101097.03
2023-05-05T18:14:10.677Z,101118.56
2023-05-05T18:16:38.491Z,101105.59
2023-05-05T18:19:06.354Z,101109.22
2023-05-05T18:21:34.191Z,101090.28
2023-05-05T18:24:15.788Z,101096.38
2023-05-05T18:26:48.927Z,101088.59
2023-05-05T18:29:18.239Z,101081.72
2023-05-05T18:31:50.848Z,101079.22
2023-05-05T18:34:19.362Z,101074.94
2023-05-05T18:36:47.746Z,101069.81
2023-05-05T18:39:15.683Z,101064.66
2023-05-05T18:41:43.622Z,101067.31
2023-05-05T18:44:11.625Z,101062.16
2023-05-05T18:46:41.272Z,101051.84
2023-05-05T18:49:09.123Z,101055.41
2023-05-05T18:51:37.223Z,101039.94
2023-05-05T18:54:05.404Z,101022.72
2023-05-05T18:56:33.378Z,101010.78
2023-05-05T18:59:01.164Z,101007.38
2023-05-05T19:01:29.040Z,101002.25
2023-05-05T19:03:58.231Z,100995.44
2023-05-05T19:06:26.126Z,100991.16
2023-05-05T19:08:53.983Z,100992.06
2023-05-05T19:11:21.931Z,100985.19
2023-05-05T19:13:49.770Z,100979.22
2023-05-05T19:16:17.956Z,100972.34
2023-05-05T19:18:45.937Z,100971.53
2023-05-05T19:21:15.170Z,100972.44
2023-05-05T19:23:42.989Z,100960.38
2023-05-05T19:26:11.536Z,100957.00
2023-05-05T19:28:39.493Z,100951.03
2023-05-05T19:31:07.346Z,100948.47
2023-05-05T19:33:36.469Z,100944.25
2023-05-05T19:36:04.575Z,100932.25
2023-05-05T19:38:33.761Z,100922.81
2023-05-05T19:41:01.598Z,100912.50
2023-05-05T19:43:29.484Z,100911.72
2023-05-05T19:45:57.320Z,100900.59
2023-05-05T19:48:25.478Z,100894.63
2023-05-05T19:50:53.373Z,100878.34
2023-05-05T19:53:21.209Z,100868.97
2023-05-05T19:55:50.599Z,100865.53
2023-05-05T19:58:18.899Z,100850.94
2023-05-05T20:00:46.698Z,100836.38
2023-05-05T20:03:14.762Z,100845.06
2023-05-05T20:05:42.630Z,100826.16
2023-05-05T20:08:10.709Z,100825.38
2023-05-05T20:10:38.568Z,100815.16
2023-05-05T20:13:07.813Z,100800.53
2023-05-05T20:15:35.714Z,100804.03
2023-05-05T20:18:03.906Z,100800.59
2023-05-05T20:20:31.857Z,100798.91
2023-05-05T20:22:59.734Z,100802.34
2023-05-05T20:25:27.750Z,100804.09
2023-05-05T20:27:55.578Z,100784.41
2023-05-05T20:30:24.772Z,100763.81
2023-05-05T20:32:53.528Z,100769.91
2023-05-05T20:35:21.499Z,100763.91
2023-05-05T20:37:49.349Z,100756.19
2023-05-05T20:40:17.199Z,100739.00
2023-05-05T20:42:45.099Z,100747.59
2023-05-05T20:45:13.071Z,100756.28
2023-05-05T20:47:42.431Z,100751.94
2023-05-05T20:50:11.359Z,100757.97
2023-05-05T20:52:39.420Z,100764.84
2023-05-05T20:55:07.923Z,100765.72
2023-05-05T20:57:35.759Z,100763.16
2023-05-05T21:00:04.159Z,100761.47
2023-05-05T21:02:32.500Z,100762.38
2023-05-05T21:05:03.138Z,100766.63
2023-05-05T21:07:33.122Z,100758.94
2023-05-05T21:10:01.287Z,100762.38
2023-05-05T21:12:29.958Z,100760.69
2023-05-05T21:14:58.741Z,100764.13
2023-05-05T21:17:26.834Z,100766.72
2023-05-05T21:19:54.968Z,100763.25
2023-05-05T21:22:24.474Z,100760.69
2023-05-05T21:24:52.263Z,100756.44
2023-05-05T21:27:20.275Z,100748.72
2023-05-05T21:29:48.146Z,100747.03
2023-05-05T21:32:15.938Z,100749.69
2023-05-05T21:34:43.781Z,100745.41
2023-05-05T21:37:12.139Z,100742.84
2023-05-05T21:39:41.695Z,100735.13
2023-05-05T21:42:09.638Z,100723.22
2023-05-05T21:44:37.420Z,100722.38
2023-05-05T21:47:06.238Z,100716.38
2023-05-05T21:49:34.031Z,100705.16
2023-05-05T21:52:01.875Z,100708.66
2023-05-05T21:54:30.709Z,100705.28
2023-05-05T21:57:00.190Z,100706.13
2023-05-05T21:59:28.055Z,100700.19
2023-05-05T22:01:56.052Z,100690.75
2023-05-05T22:06:36.025Z,100672.81
2023-05-05T22:09:03.860Z,100665.06
2023-05-05T22:11:31.714Z,100659.94
2023-05-05T22:13:59.581Z,100652.31
2023-05-05T22:16:27.417Z,100648.91
2023-05-05T22:18:55.230Z,100640.34
2023-05-05T22:21:23.050Z,100629.22
2023-05-05T22:23:52.285Z,100619.84
2023-05-05T22:26:20.217Z,100622.41
2023-05-05T22:28:48.024Z,100620.72
2023-05-05T22:31:15.818Z,100615.59
2023-05-05T22:33:43.656Z,100605.34
2023-05-05T22:36:11.536Z,100592.50
2023-05-05T22:38:39.403Z,100579.69
2023-05-05T22:41:08.720Z,100566.88
2023-05-05T22:43:37.006Z,100560.94
2023-05-05T22:46:04.905Z,100542.97
2023-05-05T22:48:32.666Z,100528.50
2023-05-05T22:51:00.495Z,100503.59
2023-05-05T22:53:28.316Z,100499.34
2023-05-05T22:55:58.252Z,100493.47
2023-05-05T22:58:27.796Z,100480.63
2023-05-05T23:00:55.615Z,100462.69
2023-05-05T23:03:23.381Z,100437.88
2023-05-05T23:05:51.192Z,100414.84
2023-05-05T23:08:20.273Z,100395.19
2023-05-05T23:10:48.190Z,100392.69
2023-05-05T23:13:16.216Z,100377.22
2023-05-05T23:15:45.565Z,100366.97
2023-05-05T23:18:13.357Z,100353.34
2023-05-05T23:20:41.165Z,100344.88
2023-05-05T23:23:08.941Z,100332.88
2023-05-05T23:25:36.769Z,100319.25
2023-05-05T23:28:04.829Z,100312.41
2023-05-05T23:30:32.628Z,100291.09
2023-05-05T23:33:01.957Z,100274.78
2023-05-05T23:35:29.777Z,100264.59
2023-05-05T23:37:57.528Z,100256.09
2023-05-05T23:40:25.404Z,100240.66
2023-05-05T23:42:53.199Z,100243.31
2023-05-05T23:45:20.959Z,100226.16
2023-05-05T23:47:48.862Z,100218.53
2023-05-05T23:50:18.050Z,100201.47
2023-05-05T23:52:45.854Z,100194.66
2023-05-05T23:55:14.415Z,100186.97
2023-05-05T23:57:42.222Z,100176.72
